Time;durP1;ratioP1;P1;durP2;ratioP2;P2;SDS_P1;SDS_P2;PMS_P1;PMS_P2;Temp;Humidity;BMP_temperature;BMP_pressure;BME280_temperature;BME280_humidity;BME280_pressure;Samples;Min_cycle;Max_cycle;Signal;HPM_P1;HPM_P2
2022/10/01 00:07:58;;;;;;;6.38;1.58;;;15.30;48.50;;;;;;21006711;28;20052;-60
2022/10/01 00:18:00;;;;;;;7.88;5.05;;;15.30;49.00;;;;;;21005812;28;20052;-62
2022/10/01 00:28:02;;;;;;;4.78;1.63;;;15.20;49.30;;;;;;21006090;28;20122;-61
2022/10/01 00:38:04;;;;;;;4.70;1.73;;;15.20;49.60;;;;;;21004190;28;20253;-57
2022/10/01 00:48:05;;;;;;;7.43;1.95;;;15.10;49.80;;;;;;21004110;28;20129;-61
2022/10/01 00:58:11;;;;;;;4.70;1.70;;;14.90;50.50;;;;;;21003229;28;20045;-57
2022/10/01 01:08:14;;;;;;;3.58;1.45;;;14.90;50.70;;;;;;21002188;28;20059;-56
2022/10/01 01:18:29;;;;;;;4.27;2.13;;;14.80;50.80;;;;;;21001414;28;20045;-56
2022/10/01 01:28:37;;;;;;;5.15;2.20;;;14.80;51.10;;;;;;21001006;28;20044;-60
2022/10/01 01:38:53;;;;;;;4.30;1.90;;;14.80;51.30;;;;;;20982302;28;20044;-57
2022/10/01 01:49:00;;;;;;;5.15;1.80;;;14.90;51.20;;;;;;20998376;28;20053;-60
2022/10/01 01:59:07;;;;;;;4.30;2.25;;;14.90;51.60;;;;;;20998525;28;20048;-58
2022/10/01 02:09:24;;;;;;;4.90;1.80;;;14.80;52.00;;;;;;20996947;28;20057;-57
2022/10/01 02:19:43;;;;;;;3.65;1.73;;;14.70;52.40;;;;;;20996677;28;20105;-57
2022/10/01 02:29:45;;;;;;;4.20;1.20;;;14.60;52.70;;;;;;20996452;28;20409;-56
2022/10/01 02:39:52;;;;;;;4.03;1.20;;;14.30;52.60;;;;;;20995304;28;20048;-57
2022/10/01 02:49:54;;;;;;;3.40;1.20;;;13.90;53.40;;;;;;20995920;28;20053;-59
2022/10/01 03:00:05;;;;;;;2.78;1.27;;;13.60;54.10;;;;;;20994517;28;20049;-60
2022/10/01 03:10:09;;;;;;;3.22;1.10;;;13.40;54.30;;;;;;20995496;28;20145;-61
2022/10/01 03:20:11;;;;;;;4.27;1.10;;;13.40;54.40;;;;;;21006303;28;20053;-61
2022/10/01 03:30:14;;;;;;;3.05;1.10;;;13.40;54.70;;;;;;21010113;28;20056;-61
2022/10/01 03:40:16;;;;;;;2.42;1.75;;;13.30;55.20;;;;;;21009953;28;20512;-59
2022/10/01 03:50:20;;;;;;;2.35;1.27;;;13.20;55.50;;;;;;21008341;28;20143;-61
2022/10/01 04:00:23;;;;;;;3.47;1.10;;;13.20;55.90;;;;;;21007845;28;20044;-63
2022/10/01 04:10:25;;;;;;;2.38;1.30;;;13.10;56.00;;;;;;21008408;28;20049;-59
2022/10/01 04:20:28;;;;;;;4.95;1.38;;;13.00;56.10;;;;;;21006773;28;20508;-61
2022/10/01 04:30:33;;;;;;;4.00;1.50;;;12.90;56.60;;;;;;21006536;28;20093;-61
2022/10/01 04:40:35;;;;;;;2.45;1.42;;;12.90;56.80;;;;;;21006971;28;20091;-59
2022/10/01 04:50:37;;;;;;;2.08;1.10;;;12.90;56.80;;;;;;21005689;28;20060;-58
2022/10/01 05:00:39;;;;;;;4.10;1.55;;;12.70;57.40;;;;;;21004236;28;20067;-57
2022/10/01 05:10:41;;;;;;;4.05;1.92;;;12.60;57.70;;;;;;20984431;28;20044;-57
2022/10/01 05:20:43;;;;;;;3.58;1.40;;;12.70;57.50;;;;;;21001730;28;20067;-56
2022/10/01 05:30:45;;;;;;;2.30;1.40;;;12.40;58.00;;;;;;21000871;28;20055;-57
2022/10/01 05:40:47;;;;;;;5.65;1.75;;;12.40;58.00;;;;;;20999438;28;20044;-57
2022/10/01 05:50:49;;;;;;;5.07;1.60;;;12.40;58.10;;;;;;20980925;28;20162;-57
2022/10/01 06:00:53;;;;;;;2.72;1.77;;;12.50;58.20;;;;;;20980342;28;20076;-56
2022/10/01 06:11:00;;;;;;;5.82;1.73;;;12.40;58.50;;;;;;20998330;28;20044;-59
2022/10/01 06:21:02;;;;;;;3.60;2.05;;;12.40;58.40;;;;;;20999264;28;20413;-56
2022/10/01 06:31:04;;;;;;;4.60;1.90;;;12.30;58.70;;;;;;20996912;28;20103;-57
2022/10/01 06:41:07;;;;;;;3.78;1.80;;;12.30;58.70;;;;;;20978064;28;20063;-61
2022/10/01 06:51:08;;;;;;;6.85;2.20;;;12.40;58.50;;;;;;20996258;28;20073;-61
2022/10/01 07:01:11;;;;;;;6.55;2.33;;;12.50;58.40;;;;;;20994888;28;20162;-61
2022/10/01 07:11:13;;;;;;;3.42;1.80;;;12.60;58.10;;;;;;20994608;28;20496;-59
2022/10/01 07:21:16;;;;;;;3.70;2.22;;;12.60;57.80;;;;;;20993951;28;20047;-61
2022/10/01 07:31:18;;;;;;;3.38;2.15;;;12.70;57.70;;;;;;20994279;28;20044;-59
2022/10/01 07:41:20;;;;;;;5.90;2.67;;;13.00;57.10;;;;;;20993706;28;20052;-61
2022/10/01 07:51:23;;;;;;;4.78;2.40;;;13.20;56.40;;;;;;20993617;28;20053;-60
2022/10/01 08:01:26;;;;;;;5.70;3.05;;;13.40;56.00;;;;;;20995571;28;20055;-59
2022/10/01 08:11:28;;;;;;;5.35;2.33;;;13.80;54.80;;;;;;21008326;28;20080;-58
2022/10/01 08:21:30;;;;;;;7.40;3.20;;;14.20;54.00;;;;;;21006684;28;20052;-56
2022/10/01 08:31:31;;;;;;;6.28;2.63;;;14.60;53.00;;;;;;21006568;28;20141;-56
2022/10/01 08:42:02;;;;;;;6.45;2.97;;;14.90;51.90;;;;;;21004613;28;20194;-57
2022/10/01 08:52:25;;;;;;;5.05;3.13;;;15.20;50.90;;;;;;20667058;28;20052;-58
2022/10/01 09:02:32;;;;;;;6.75;3.13;;;15.50;50.10;;;;;;20665946;28;20058;-59
2022/10/01 09:12:51;;;;;;;6.28;3.13;;;15.70;49.40;;;;;;20664986;28;20174;-56
2022/10/01 09:23:14;;;;;;;7.03;3.13;;;16.10;48.60;;;;;;20759303;28;20127;-58
2022/10/01 09:33:19;;;;;;;5.40;2.60;;;16.40;47.60;;;;;;21000323;28;20048;-55
2022/10/01 09:43:32;;;;;;;4.55;2.15;;;16.80;46.10;;;;;;20979937;28;20059;-57
2022/10/01 09:53:40;;;;;;;4.13;2.10;;;17.20;45.00;;;;;;20998393;28;20496;-56
2022/10/01 10:03:53;;;;;;;5.18;1.60;;;17.50;43.70;;;;;;20998199;28;20416;-60
2022/10/01 10:13:59;;;;;;;4.33;1.70;;;17.80;43.00;;;;;;20997056;28;20526;-61
2022/10/01 10:24:03;;;;;;;5.47;1.50;;;18.20;42.20;;;;;;20997395;28;20447;-57
2022/10/01 10:34:12;;;;;;;;;;;18.40;41.30;;;;;;20997099;28;20075;-58
2022/10/01 10:44:20;;;;;;;4.65;1.77;;;18.60;41.10;;;;;;20977023;28;19920;-58
2022/10/01 10:54:24;;;;;;;4.20;1.40;;;19.00;40.20;;;;;;20995898;28;20056;-57
2022/10/01 11:04:38;;;;;;;3.50;1.50;;;19.30;39.60;;;;;;20995449;28;20481;-62
2022/10/01 11:15:05;;;;;;;2.73;1.10;;;19.50;39.20;;;;;;20993793;28;20084;-58
2022/10/01 11:25:19;;;;;;;3.22;1.20;;;19.90;38.30;;;;;;20993574;28;20527;-59
2022/10/01 11:35:38;;;;;;;3.17;1.60;;;20.00;37.50;;;;;;20994847;28;20048;-56
2022/10/01 11:45:45;;;;;;;2.25;1.25;;;20.30;36.80;;;;;;21008310;28;20075;-59
2022/10/01 12:06:21;;;;;;;4.57;1.55;;;20.70;35.90;;;;;;21007306;28;20048;-57
2022/10/01 12:16:55;;;;;;;6.50;3.45;;;20.90;35.60;;;;;;21006138;28;20420;-58
2022/10/01 12:27:18;;;;;;;3.28;1.50;;;21.20;33.80;;;;;;21005403;28;20412;-61
2022/10/01 12:37:26;;;;;;;2.87;0.87;;;21.30;33.30;;;;;;21004642;28;20048;-58
2022/10/01 12:47:46;;;;;;;5.68;2.70;;;21.50;33.10;;;;;;21003045;28;20048;-60
2022/10/01 12:58:25;;;;;;;5.07;2.00;;;21.60;33.20;;;;;;20984886;28;20080;-58
2022/10/01 13:08:45;;;;;;;2.60;1.30;;;22.00;32.90;;;;;;21000980;28;20088;-57
2022/10/01 13:18:59;;;;;;;3.60;1.50;;;22.20;31.70;;;;;;21002888;28;20417;-57
2022/10/01 13:29:16;;;;;;;3.80;1.10;;;22.30;32.10;;;;;;21001558;28;20052;-57
2022/10/01 13:39:23;;;;;;;2.03;0.95;;;22.50;30.80;;;;;;20999510;28;20080;-58
2022/10/01 13:49:28;;;;;;;3.25;1.95;;;22.60;29.40;;;;;;21001125;28;20131;-58
2022/10/01 13:59:34;;;;;;;2.40;0.80;;;22.60;29.10;;;;;;20980581;28;20508;-56
2022/10/01 14:09:51;;;;;;;3.38;1.55;;;22.70;28.30;;;;;;20997634;28;20479;-56
2022/10/01 14:19:53;;;;;;;3.60;1.05;;;22.90;30.60;;;;;;20997342;28;20102;-57
2022/10/01 14:29:57;;;;;;;2.28;1.15;;;22.90;29.90;;;;;;20997117;28;20473;-61
2022/10/01 14:40:18;;;;;;;2.90;0.90;;;23.00;29.20;;;;;;20994798;28;20052;-59
2022/10/01 14:50:20;;;;;;;5.85;1.58;;;23.00;29.20;;;;;;20995873;28;20118;-61
2022/10/01 15:00:26;;;;;;;3.10;1.10;;;23.10;28.90;;;;;;20994441;28;20044;-57
2022/10/01 15:10:27;;;;;;;1.90;1.13;;;23.20;29.20;;;;;;20998748;28;20095;-57
2022/10/01 15:20:29;;;;;;;2.38;1.65;;;23.20;29.20;;;;;;21010375;28;20048;-58
2022/10/01 15:30:34;;;;;;;1.73;1.10;;;23.10;28.20;;;;;;21010255;28;20048;-62
2022/10/01 15:40:36;;;;;;;3.53;1.10;;;23.10;28.20;;;;;;21009307;28;20057;-57
2022/10/01 15:50:40;;;;;;;2.08;1.30;;;23.10;28.60;;;;;;21008413;28;20064;-60
2022/10/01 16:01:00;;;;;;;2.80;1.35;;;23.10;27.70;;;;;;20973589;28;20090;-57
2022/10/01 16:11:15;;;;;;;2.70;1.00;;;23.10;28.00;;;;;;21006995;28;20477;-60
2022/10/01 16:21:18;;;;;;;4.00;1.10;;;23.00;28.70;;;;;;21005010;28;20063;-57
2022/10/01 16:31:20;;;;;;;3.57;1.53;;;22.90;28.60;;;;;;21005123;28;20107;-57
2022/10/01 16:41:25;;;;;;;5.68;2.05;;;22.80;28.90;;;;;;21004366;28;20097;-59
2022/10/01 16:51:27;;;;;;;2.05;0.90;;;22.70;28.70;;;;;;20986134;28;20170;-61
2022/10/01 17:01:29;;;;;;;3.47;1.08;;;22.60;29.10;;;;;;21003124;28;20098;-56
2022/10/01 17:11:31;;;;;;;3.30;1.45;;;22.50;29.40;;;;;;21002960;28;20075;-59
2022/10/01 17:21:32;;;;;;;2.22;1.45;;;22.50;29.90;;;;;;21003681;28;20044;-57
2022/10/01 17:31:35;;;;;;;9.35;4.03;;;22.20;30.60;;;;;;21000866;28;20086;-58
2022/10/01 17:41:37;;;;;;;2.80;1.30;;;22.10;30.80;;;;;;20998828;28;20052;-58
2022/10/01 17:51:38;;;;;;;5.35;2.88;;;22.00;32.30;;;;;;21000358;28;20068;-58
2022/10/01 18:01:40;;;;;;;5.22;2.17;;;21.80;31.50;;;;;;20999119;28;20412;-58
2022/10/01 18:11:41;;;;;;;9.00;4.60;;;21.70;31.70;;;;;;20998817;28;20083;-60
2022/10/01 18:21:42;;;;;;;5.22;2.58;;;21.60;33.40;;;;;;20998049;28;20044;-58
2022/10/01 18:31:44;;;;;;;9.63;4.70;;;21.40;32.80;;;;;;20996073;28;20505;-57
2022/10/01 18:41:47;;;;;;;14.43;9.52;;;21.30;33.60;;;;;;20995661;28;20068;-59
2022/10/01 18:52:03;;;;;;;17.43;9.43;;;21.20;33.80;;;;;;20978324;28;20378;-58
2022/10/01 19:02:22;;;;;;;9.88;7.00;;;21.20;35.00;;;;;;20995524;28;20327;-56
2022/10/01 19:12:29;;;;;;;11.48;7.25;;;21.10;34.90;;;;;;20995935;28;20048;-58
2022/10/01 19:22:30;;;;;;;14.43;7.13;;;21.00;35.70;;;;;;20996353;28;20045;-58
2022/10/01 19:33:00;;;;;;;13.90;6.10;;;20.80;35.10;;;;;;20977456;28;20044;-57
2022/10/01 19:43:26;;;;;;;13.45;7.93;;;20.70;35.80;;;;;;20993870;28;20109;-57
2022/10/01 19:53:32;;;;;;;14.23;8.73;;;20.50;36.00;;;;;;20993400;28;20048;-57
2022/10/01 20:03:41;;;;;;;13.00;7.93;;;20.30;36.70;;;;;;21005969;28;20052;-59
2022/10/01 20:13:45;;;;;;;17.02;9.63;;;20.20;36.30;;;;;;21007728;28;20071;-58
2022/10/01 20:24:14;;;;;;;23.80;9.93;;;20.10;37.80;;;;;;21007431;28;20385;-59
2022/10/01 20:34:45;;;;;;;9.50;5.88;;;19.90;38.80;;;;;;21006647;28;20428;-58
2022/10/01 20:44:46;;;;;;;5.47;3.47;;;19.70;39.80;;;;;;21005489;28;20577;-57
2022/10/01 20:54:57;;;;;;;8.40;3.65;;;19.30;40.80;;;;;;20986423;28;20136;-57
2022/10/01 21:05:16;;;;;;;8.98;3.35;;;19.10;41.00;;;;;;21003579;28;20052;-58
2022/10/01 21:15:21;;;;;;;4.85;2.28;;;18.90;41.30;;;;;;21002082;28;20386;-57
2022/10/01 21:25:57;;;;;;;4.68;2.15;;;18.70;41.80;;;;;;21002720;28;20135;-58
2022/10/01 21:36:10;;;;;;;4.55;2.05;;;18.50;41.70;;;;;;21001076;28;20569;-59
2022/10/01 21:46:42;;;;;;;4.67;1.70;;;18.20;42.10;;;;;;20999821;28;20057;-58
2022/10/01 21:57:01;;;;;;;5.85;1.88;;;18.10;42.10;;;;;;20999154;28;20044;-58
2022/10/01 22:07:34;;;;;;;3.47;2.00;;;18.00;42.30;;;;;;20999317;28;20139;-60
2022/10/01 22:17:36;;;;;;;4.73;2.20;;;17.90;42.80;;;;;;20661355;28;20613;-57
2022/10/01 22:27:50;;;;;;;3.65;1.70;;;17.70;43.40;;;;;;20643698;28;20112;-59
2022/10/01 22:38:04;;;;;;;3.63;2.00;;;17.60;43.50;;;;;;20659683;28;20046;-57
2022/10/01 22:48:47;;;;;;;5.32;1.75;;;17.40;43.80;;;;;;20741355;28;20048;-57
2022/10/01 22:59:08;;;;;;;5.57;2.38;;;17.30;44.30;;;;;;20658697;28;20046;-59
2022/10/01 23:09:45;;;;;;;4.88;2.03;;;17.20;44.80;;;;;;20657687;28;20100;-61
2022/10/01 23:19:55;;;;;;;6.07;2.28;;;17.10;44.70;;;;;;20657894;28;20086;-59
2022/10/01 23:30:10;;;;;;;4.93;2.40;;;17.00;45.40;;;;;;20969105;28;20049;-58
2022/10/01 23:40:16;;;;;;;7.75;2.90;;;16.80;45.70;;;;;;21009837;28;20060;-57
2022/10/01 23:50:29;;;;;;;3.90;2.10;;;16.70;46.40;;;;;;20992252;28;20080;-58
